createdAt,value
2022-12-19T00:00:39.909Z,3.31
2022-12-19T00:03:10.626Z,3.10
2022-12-19T00:05:41.848Z,3.53
2022-12-19T00:08:18.282Z,3.07
2022-12-19T00:10:57.508Z,3.47
2022-12-19T00:13:27.691Z,3.27
2022-12-19T00:16:04.799Z,3.38
2022-12-19T00:18:37.934Z,3.37
2022-12-19T00:21:09.125Z,3.44
2022-12-19T00:23:38.326Z,3.32
2022-12-19T00:26:19.567Z,3.45
2022-12-19T00:28:51.560Z,3.57
2022-12-19T00:31:33.699Z,3.33
2022-12-19T00:34:07.128Z,3.48
2022-12-19T00:36:37.109Z,3.48
2022-12-19T00:39:13.640Z,3.48
2022-12-19T00:41:43.583Z,3.70
2022-12-19T00:44:16.069Z,3.48
2022-12-19T00:46:52.393Z,3.47
2022-12-19T00:49:23.631Z,3.22
2022-12-19T00:51:53.207Z,3.56
2022-12-19T00:54:22.689Z,3.70
2022-12-19T00:56:53.255Z,3.53
2022-12-19T00:59:26.489Z,3.85
2022-12-19T01:01:56.459Z,3.72
2022-12-19T01:04:29.190Z,3.62
2022-12-19T01:07:06.751Z,3.26
2022-12-19T01:09:41.562Z,3.86
2022-12-19T01:12:44.984Z,3.82
2022-12-19T01:15:17.660Z,3.69
2022-12-19T01:17:48.771Z,3.39
2022-12-19T01:20:29.156Z,3.68
2022-12-19T01:23:00.828Z,3.84
2022-12-19T01:25:30.237Z,3.57
2022-12-19T01:27:59.792Z,4.11
2022-12-19T01:30:31.643Z,3.78
2022-12-19T01:33:02.178Z,3.88
2022-12-19T01:35:32.831Z,4.14
2022-12-19T01:38:07.816Z,4.21
2022-12-19T01:40:37.652Z,4.02
2022-12-19T01:43:08.236Z,4.12
2022-12-19T01:45:45.321Z,3.99
2022-12-19T01:48:22.856Z,3.97
2022-12-19T01:51:02.065Z,4.09
2022-12-19T01:53:48.692Z,4.41
2022-12-19T01:56:20.412Z,4.08
2022-12-19T01:58:56.156Z,4.20
2022-12-19T02:01:35.902Z,4.12
2022-12-19T02:04:09.459Z,3.88
2022-12-19T02:06:42.728Z,4.20
2022-12-19T02:09:12.847Z,4.04
2022-12-19T02:11:41.749Z,4.36
2022-12-19T02:14:10.835Z,4.07
2022-12-19T02:16:53.757Z,4.13
2022-12-19T02:20:30.195Z,4.51
2022-12-19T02:23:25.299Z,4.30
2022-12-19T02:26:14.736Z,4.49
2022-12-19T02:29:06.740Z,4.64
2022-12-19T02:31:44.805Z,4.36
2022-12-19T02:34:26.096Z,4.61
2022-12-19T02:37:03.547Z,4.63
2022-12-19T02:39:42.551Z,4.42
2022-12-19T02:42:16.847Z,4.69
2022-12-19T02:44:51.478Z,4.78
2022-12-19T02:47:24.558Z,4.68
2022-12-19T02:49:53.478Z,4.72
2022-12-19T02:52:48.405Z,4.71
2022-12-19T02:55:23.360Z,5.33
2022-12-19T02:58:30.891Z,4.94
2022-12-19T03:01:09.748Z,5.21
2022-12-19T03:03:55.949Z,5.25
2022-12-19T03:06:35.876Z,5.27
2022-12-19T03:09:17.664Z,4.90
2022-12-19T03:11:52.064Z,5.14
2022-12-19T03:14:25.034Z,5.45
2022-12-19T03:16:56.396Z,5.31
2022-12-19T03:19:28.205Z,5.20
2022-12-19T03:21:59.044Z,5.40
2022-12-19T03:24:27.690Z,5.50
2022-12-19T03:27:02.646Z,5.36
2022-12-19T03:29:37.939Z,5.46
2022-12-19T03:32:11.866Z,5.44
2022-12-19T03:34:48.309Z,5.44
2022-12-19T03:37:22.252Z,5.46
2022-12-19T03:39:56.162Z,5.56
2022-12-19T03:42:46.139Z,5.64
2022-12-19T03:45:20.020Z,5.91
2022-12-19T03:47:53.427Z,5.97
2022-12-19T03:50:29.982Z,6.10
2022-12-19T03:53:12.865Z,5.77
2022-12-19T03:55:49.368Z,6.11
2022-12-19T03:58:25.965Z,5.92
2022-12-19T04:00:55.958Z,5.89
2022-12-19T04:03:25.990Z,5.87
2022-12-19T04:05:59.141Z,6.34
2022-12-19T04:08:29.525Z,6.50
2022-12-19T04:11:11.193Z,6.30
2022-12-19T04:13:46.490Z,6.41
2022-12-19T04:16:25.156Z,6.13
2022-12-19T04:19:00.189Z,6.23
2022-12-19T04:21:38.278Z,6.58
2022-12-19T04:24:13.944Z,6.35
2022-12-19T04:26:46.419Z,6.36
2022-12-19T04:29:17.140Z,6.68
2022-12-19T04:31:49.168Z,6.75
2022-12-19T04:34:21.996Z,6.94
2022-12-19T04:36:52.870Z,7.16
2022-12-19T04:39:21.421Z,6.96
2022-12-19T04:41:51.062Z,6.72
2022-12-19T04:44:20.308Z,6.86
2022-12-19T04:46:48.989Z,7.27
2022-12-19T04:49:19.717Z,7.15
2022-12-19T04:51:48.607Z,7.02
2022-12-19T04:54:19.230Z,7.00
2022-12-19T04:56:47.549Z,7.43
2022-12-19T04:59:18.369Z,7.32
2022-12-19T05:01:47.552Z,7.37
2022-12-19T05:04:17.284Z,7.09
2022-12-19T05:06:45.761Z,7.06
2022-12-19T05:09:14.941Z,7.19
2022-12-19T05:11:45.143Z,7.51
2022-12-19T05:14:15.648Z,7.60
2022-12-19T05:16:45.751Z,7.48
2022-12-19T05:19:16.791Z,7.63
2022-12-19T05:21:45.551Z,7.78
2022-12-19T05:24:14.499Z,7.48
2022-12-19T05:26:44.568Z,7.61
2022-12-19T05:29:13.542Z,7.42
2022-12-19T05:31:45.445Z,7.91
2022-12-19T05:34:15.905Z,7.89
2022-12-19T05:36:44.867Z,7.82
2022-12-19T05:39:14.332Z,7.80
2022-12-19T05:41:48.696Z,8.04
2022-12-19T05:44:18.329Z,7.82
2022-12-19T05:46:47.420Z,7.89
2022-12-19T05:49:16.437Z,7.94
2022-12-19T05:51:45.145Z,7.84
2022-12-19T05:54:14.617Z,8.17
2022-12-19T05:56:48.187Z,8.00
2022-12-19T05:59:17.294Z,8.15
2022-12-19T06:01:45.997Z,8.32
2022-12-19T06:04:15.200Z,8.17
2022-12-19T06:06:44.092Z,8.23
2022-12-19T06:09:14.172Z,8.17
2022-12-19T06:11:46.442Z,8.28
2022-12-19T06:14:16.074Z,8.37
2022-12-19T06:16:45.099Z,8.44
2022-12-19T06:19:14.480Z,8.40
2022-12-19T06:21:48.200Z,8.79
2022-12-19T06:24:18.055Z,8.41
2022-12-19T06:26:49.833Z,8.70
2022-12-19T06:29:20.179Z,8.66
2022-12-19T06:35:03.557Z,8.86
2022-12-19T06:37:32.676Z,8.88
2022-12-19T06:40:01.830Z,8.63
2022-12-19T06:42:31.484Z,8.71
2022-12-19T06:45:00.271Z,8.74
2022-12-19T06:47:29.084Z,8.61
2022-12-19T06:50:00.363Z,8.74
2022-12-19T06:52:29.215Z,8.74
2022-12-19T06:54:58.678Z,8.91
2022-12-19T06:57:27.935Z,9.02
2022-12-19T07:00:00.170Z,9.06
2022-12-19T07:02:33.240Z,8.74
2022-12-19T07:05:05.682Z,9.18
2022-12-19T07:07:35.564Z,9.19
2022-12-19T07:10:08.373Z,9.27
2022-12-19T07:12:37.725Z,9.28
2022-12-19T07:15:10.409Z,9.47
2022-12-19T07:17:40.335Z,9.48
2022-12-19T07:20:10.640Z,9.45
2022-12-19T07:22:40.307Z,9.43
2022-12-19T07:25:12.515Z,9.22
2022-12-19T07:27:41.738Z,9.47
2022-12-19T07:30:14.543Z,9.39
2022-12-19T07:32:43.344Z,9.50
2022-12-19T07:35:12.796Z,9.39
2022-12-19T07:37:41.913Z,9.62
2022-12-19T07:40:12.749Z,9.68
2022-12-19T07:42:42.215Z,9.59
2022-12-19T07:45:15.410Z,9.53
2022-12-19T07:47:43.669Z,9.99
2022-12-19T07:50:13.829Z,9.73
2022-12-19T07:52:49.472Z,9.78
2022-12-19T07:55:25.465Z,9.73
2022-12-19T07:58:04.898Z,9.67
2022-12-19T08:00:37.904Z,9.52
2022-12-19T08:03:07.217Z,9.96
2022-12-19T08:05:40.748Z,9.83
2022-12-19T08:08:10.972Z,10.32
2022-12-19T08:10:41.488Z,9.96
2022-12-19T08:13:10.328Z,10.26
2022-12-19T08:15:45.366Z,10.12
2022-12-19T08:18:15.399Z,10.12
2022-12-19T08:20:47.892Z,9.72
2022-12-19T08:23:16.832Z,9.80
2022-12-19T08:25:45.376Z,10.24
2022-12-19T08:28:15.595Z,10.09
2022-12-19T08:30:46.323Z,10.11
2022-12-19T08:33:15.341Z,9.99
2022-12-19T08:35:44.807Z,10.23
2022-12-19T08:38:17.177Z,10.00
2022-12-19T08:40:47.653Z,10.27
2022-12-19T08:43:17.320Z,10.22
2022-12-19T08:45:52.628Z,9.70
2022-12-19T08:48:21.970Z,10.36
2022-12-19T08:50:58.839Z,10.23
2022-12-19T08:53:29.578Z,10.59
2022-12-19T08:56:00.034Z,10.32
2022-12-19T08:58:32.072Z,10.39
2022-12-19T09:01:09.093Z,10.10
2022-12-19T09:04:24.367Z,10.40
2022-12-19T09:06:27.725Z,10.27
2022-12-19T09:09:00.225Z,10.33
2022-12-19T09:11:29.485Z,10.06
2022-12-19T09:13:59.429Z,10.39
2022-12-19T09:16:30.933Z,10.09
2022-12-19T09:18:59.728Z,10.05
2022-12-19T09:21:31.924Z,10.47
2022-12-19T09:24:07.633Z,10.39
2022-12-19T09:26:38.888Z,10.47
2022-12-19T09:29:19.414Z,10.26
2022-12-19T09:31:56.183Z,10.41
2022-12-19T09:34:33.234Z,10.57
2022-12-19T09:37:08.882Z,10.48
2022-12-19T09:39:39.082Z,10.64
2022-12-19T09:42:48.026Z,10.51
2022-12-19T09:46:09.763Z,10.46
2022-12-19T09:48:40.604Z,10.60
2022-12-19T09:51:32.757Z,10.90
2022-12-19T09:54:17.842Z,10.88
2022-12-19T09:56:50.590Z,10.76
2022-12-19T09:59:41.616Z,10.54
2022-12-19T10:02:35.640Z,10.74
2022-12-19T10:06:25.530Z,10.82
2022-12-19T10:08:21.039Z,10.98
2022-12-19T10:12:46.511Z,10.62
2022-12-19T10:14:35.365Z,10.55
2022-12-19T10:17:25.345Z,10.74
2022-12-19T10:20:21.971Z,10.38
2022-12-19T10:23:06.646Z,10.58
2022-12-19T10:25:53.426Z,11.12
2022-12-19T10:28:59.505Z,10.81
2022-12-19T10:31:35.798Z,10.57
2022-12-19T10:37:27.561Z,10.82
2022-12-19T10:40:27.356Z,10.98
2022-12-19T10:43:10.812Z,11.17
2022-12-19T10:45:47.429Z,11.11
2022-12-19T10:48:31.043Z,10.87
2022-12-19T10:51:06.368Z,11.31
2022-12-19T10:53:39.360Z,10.94
2022-12-19T10:56:22.903Z,11.08
2022-12-19T10:59:07.083Z,10.75
2022-12-19T11:01:41.131Z,11.65
2022-12-19T11:04:31.828Z,11.20
2022-12-19T11:07:20.631Z,11.15
2022-12-19T11:10:41.254Z,11.29
2022-12-19T11:16:18.261Z,11.30
2022-12-19T11:19:59.211Z,11.65
2022-12-19T11:29:19.046Z,11.34
2022-12-19T11:29:45.633Z,11.07
2022-12-19T11:30:06.582Z,11.32
2022-12-19T11:30:46.946Z,11.12
2022-12-19T11:33:28.570Z,11.24
2022-12-19T11:36:01.061Z,11.18
2022-12-19T11:38:49.757Z,11.41
2022-12-19T11:41:29.275Z,11.40
2022-12-19T11:47:01.962Z,10.96
2022-12-19T11:49:41.586Z,11.07
2022-12-19T11:55:25.545Z,11.28
2022-12-19T11:57:57.674Z,11.66
2022-12-19T12:00:28.948Z,11.70
2022-12-19T12:03:23.931Z,11.60
2022-12-19T12:05:57.104Z,11.29
2022-12-19T12:14:14.596Z,11.51
2022-12-19T12:22:09.799Z,11.23
2022-12-19T12:28:55.307Z,11.35
2022-12-19T12:31:07.036Z,11.65
2022-12-19T12:31:18.798Z,11.35
2022-12-19T12:31:41.329Z,11.60
2022-12-19T12:31:58.819Z,11.39
2022-12-19T12:32:02.055Z,11.41
2022-12-19T12:35:32.825Z,11.30
2022-12-19T12:38:13.580Z,11.73
2022-12-19T12:40:29.168Z,11.64
2022-12-19T12:43:11.266Z,11.41
2022-12-19T12:45:45.428Z,11.60
2022-12-19T12:48:27.477Z,11.62
2022-12-19T12:51:02.856Z,11.75
2022-12-19T12:53:36.764Z,11.64
2022-12-19T12:56:09.753Z,11.50
2022-12-19T12:59:05.988Z,11.75
2022-12-19T13:01:38.613Z,11.98
2022-12-19T13:04:22.376Z,11.95
2022-12-19T13:07:29.702Z,11.80
2022-12-19T13:10:28.598Z,11.99
2022-12-19T13:13:02.070Z,11.22
2022-12-19T13:15:46.012Z,11.53
2022-12-19T13:18:38.177Z,11.58
2022-12-19T13:21:10.992Z,11.85
2022-12-19T13:24:16.137Z,11.60
2022-12-19T13:26:50.183Z,11.41
2022-12-19T13:29:34.829Z,11.52
2022-12-19T13:32:16.878Z,11.84
2022-12-19T13:36:01.679Z,12.00
2022-12-19T13:39:57.246Z,11.99
2022-12-19T13:41:02.452Z,11.63
2022-12-19T13:43:48.563Z,11.92
2022-12-19T13:46:35.564Z,11.89
2022-12-19T13:49:09.501Z,11.74
2022-12-19T13:51:51.126Z,11.99
2022-12-19T13:54:24.547Z,11.92
2022-12-19T13:56:56.480Z,11.67
2022-12-19T13:59:30.227Z,12.28
2022-12-19T14:02:12.273Z,12.05
2022-12-19T14:04:44.509Z,11.91
2022-12-19T14:11:32.204Z,12.09
2022-12-19T14:14:15.022Z,12.42
2022-12-19T14:16:48.036Z,12.19
2022-12-19T14:19:26.596Z,12.43
2022-12-19T14:26:52.226Z,11.82
2022-12-19T14:28:26.301Z,11.88
2022-12-19T14:31:15.415Z,12.22
2022-12-19T14:34:35.814Z,12.42
2022-12-19T14:37:04.354Z,12.18
2022-12-19T14:58:55.312Z,12.21
2022-12-19T15:01:09.805Z,12.16
2022-12-19T15:03:41.237Z,12.44
2022-12-19T15:11:00.712Z,11.92
2022-12-19T15:14:47.269Z,12.15
2022-12-19T15:15:57.741Z,11.71
2022-12-19T15:18:43.212Z,11.64
2022-12-19T15:24:19.051Z,11.36
2022-12-19T15:41:46.259Z,11.37
2022-12-19T15:44:27.422Z,11.28
2022-12-19T15:50:21.320Z,11.44
2022-12-19T15:52:50.541Z,11.26
2022-12-19T15:55:21.638Z,11.56
2022-12-19T15:57:56.040Z,11.31
2022-12-19T16:00:29.164Z,11.42
2022-12-19T16:05:51.815Z,11.35
2022-12-19T16:08:25.435Z,11.44
2022-12-19T16:11:01.888Z,11.36
2022-12-19T16:13:40.511Z,11.55
2022-12-19T16:16:15.773Z,11.63
2022-12-19T16:18:46.214Z,11.35
2022-12-19T16:21:33.177Z,11.23
2022-12-19T16:24:04.130Z,11.39
2022-12-19T16:26:36.117Z,11.48
2022-12-19T16:29:07.737Z,11.63
2022-12-19T16:31:36.846Z,11.12
2022-12-19T16:34:16.742Z,11.47
2022-12-19T16:36:47.313Z,11.54
2022-12-19T16:39:19.372Z,11.35
2022-12-19T16:41:49.371Z,11.47
2022-12-19T16:44:23.280Z,11.36
2022-12-19T16:46:53.765Z,11.47
2022-12-19T16:49:24.431Z,11.61
2022-12-19T16:51:56.525Z,11.53
2022-12-19T16:54:28.502Z,11.84
2022-12-19T16:56:57.372Z,11.77
2022-12-19T16:59:32.166Z,12.01
2022-12-19T17:02:02.279Z,11.67
2022-12-19T17:04:31.698Z,11.87
2022-12-19T17:07:01.924Z,11.76
2022-12-19T17:09:31.103Z,11.57
2022-12-19T17:12:02.647Z,11.82
2022-12-19T17:14:33.913Z,11.65
2022-12-19T17:17:05.514Z,11.52
2022-12-19T17:19:42.163Z,12.07
2022-12-19T17:22:15.787Z,11.99
2022-12-19T17:24:48.722Z,11.86
2022-12-19T17:27:19.390Z,11.50
2022-12-19T17:29:49.002Z,11.60
2022-12-19T17:32:23.709Z,11.71
2022-12-19T17:34:53.715Z,11.78
2022-12-19T17:37:24.961Z,11.85
2022-12-19T17:39:56.023Z,11.79
2022-12-19T17:42:37.015Z,11.67
2022-12-19T17:45:09.455Z,11.86
2022-12-19T17:47:41.486Z,11.80
2022-12-19T17:50:32.745Z,11.45
2022-12-19T17:53:04.494Z,11.66
2022-12-19T17:55:34.685Z,11.68
2022-12-19T17:58:03.984Z,11.41
2022-12-19T18:00:35.429Z,12.12
2022-12-19T18:03:21.742Z,11.68
2022-12-19T18:05:53.230Z,11.62
2022-12-19T18:08:28.361Z,11.87
2022-12-19T18:10:59.645Z,11.75
2022-12-19T18:13:31.733Z,11.61
2022-12-19T18:16:05.369Z,11.72
2022-12-19T18:18:38.312Z,11.72
2022-12-19T18:21:08.240Z,11.31
2022-12-19T18:23:39.070Z,11.53
2022-12-19T18:26:12.384Z,11.73
2022-12-19T18:28:42.094Z,11.69
2022-12-19T18:31:17.926Z,11.84
2022-12-19T18:33:49.180Z,11.89
2022-12-19T18:36:22.718Z,11.53
2022-12-19T18:38:56.087Z,11.64
2022-12-19T18:41:26.158Z,11.75
2022-12-19T18:43:55.476Z,11.33
2022-12-19T18:46:30.352Z,11.81
2022-12-19T18:49:01.582Z,11.38
2022-12-19T18:51:31.452Z,11.47
2022-12-19T18:54:01.992Z,11.54
2022-12-19T18:56:30.557Z,11.64
2022-12-19T18:59:04.515Z,11.80
2022-12-19T19:01:33.707Z,11.63
2022-12-19T19:04:03.549Z,11.62
2022-12-19T19:06:37.836Z,11.71
2022-12-19T19:09:17.532Z,12.00
2022-12-19T19:11:46.389Z,12.03
2022-12-19T19:14:15.623Z,11.75
2022-12-19T19:16:46.884Z,11.66
2022-12-19T19:19:19.813Z,12.08
2022-12-19T19:21:48.860Z,11.85
2022-12-19T19:24:23.840Z,11.90
2022-12-19T19:26:52.491Z,12.13
2022-12-19T19:29:21.388Z,11.86
2022-12-19T19:31:54.170Z,11.59
2022-12-19T19:34:29.556Z,11.87
2022-12-19T19:37:00.105Z,11.84
2022-12-19T19:39:35.692Z,11.83
2022-12-19T19:42:05.244Z,12.52
2022-12-19T19:44:34.077Z,12.19
2022-12-19T19:47:04.769Z,12.39
2022-12-19T19:49:33.379Z,12.16
2022-12-19T19:52:05.728Z,12.02
2022-12-19T19:54:37.431Z,12.36
2022-12-19T19:57:06.773Z,12.26
2022-12-19T19:59:35.866Z,12.48
2022-12-19T20:02:04.697Z,12.30
2022-12-19T20:04:34.623Z,12.63
2022-12-19T20:07:05.320Z,12.17
2022-12-19T20:09:35.941Z,12.29
2022-12-19T20:12:16.533Z,12.57
2022-12-19T20:14:48.607Z,12.58
2022-12-19T20:17:18.272Z,12.29
2022-12-19T20:19:49.330Z,12.54
2022-12-19T20:22:18.587Z,12.44
2022-12-19T20:24:50.723Z,12.35
2022-12-19T20:27:19.293Z,12.61
2022-12-19T20:29:47.684Z,12.64
2022-12-19T20:32:17.768Z,12.81
2022-12-19T20:34:46.405Z,12.72
2022-12-19T20:37:16.634Z,12.78
2022-12-19T20:39:48.056Z,12.95
2022-12-19T20:42:18.132Z,12.98
2022-12-19T20:44:46.841Z,12.77
2022-12-19T20:47:15.811Z,13.12
2022-12-19T20:49:44.928Z,12.84
2022-12-19T20:52:18.809Z,12.90
2022-12-19T20:54:47.555Z,12.97
2022-12-19T20:57:18.550Z,12.78
2022-12-19T20:59:47.145Z,12.73
2022-12-19T21:02:16.120Z,12.85
2022-12-19T21:04:46.411Z,12.64
2022-12-19T21:07:16.501Z,13.14
2022-12-19T21:09:45.645Z,13.09
2022-12-19T21:12:15.049Z,12.89
2022-12-19T21:14:45.128Z,12.89
2022-12-19T21:17:14.046Z,12.98
2022-12-19T21:19:43.348Z,12.99
2022-12-19T21:22:12.361Z,12.96
2022-12-19T21:24:45.453Z,13.07
2022-12-19T21:27:14.223Z,12.74
2022-12-19T21:29:45.323Z,12.95
2022-12-19T21:32:18.895Z,12.86
2022-12-19T21:34:48.822Z,12.86
2022-12-19T21:37:17.862Z,13.04
2022-12-19T21:39:46.445Z,13.00
2022-12-19T21:42:14.927Z,13.06
2022-12-19T21:44:44.971Z,12.65
2022-12-19T21:47:13.981Z,12.66
2022-12-19T21:49:42.720Z,12.81
2022-12-19T21:52:11.727Z,12.77
2022-12-19T21:54:40.841Z,12.55
2022-12-19T21:57:10.202Z,12.82
2022-12-19T21:59:39.306Z,12.46
2022-12-19T22:02:12.139Z,12.56
2022-12-19T22:04:41.244Z,12.72
2022-12-19T22:07:10.026Z,13.12
2022-12-19T22:09:38.674Z,12.91
2022-12-19T22:12:07.984Z,12.72
2022-12-19T22:14:36.841Z,13.00
2022-12-19T22:17:06.873Z,12.74
2022-12-19T22:19:37.453Z,12.85
2022-12-19T22:22:06.824Z,12.91
2022-12-19T22:24:35.844Z,12.92
2022-12-19T22:27:04.600Z,13.13
2022-12-19T22:29:36.656Z,13.01
2022-12-19T22:32:07.331Z,13.29
2022-12-19T22:34:38.194Z,12.86
2022-12-19T22:37:07.280Z,12.89
2022-12-19T22:39:36.097Z,13.06
2022-12-19T22:42:05.608Z,13.10
2022-12-19T22:44:34.237Z,12.85
2022-12-19T22:47:03.100Z,13.17
2022-12-19T22:49:32.083Z,13.03
2022-12-19T22:52:10.418Z,12.82
2022-12-19T22:54:39.321Z,12.96
2022-12-19T22:57:08.953Z,13.13
2022-12-19T22:59:37.897Z,12.98
2022-12-19T23:02:06.418Z,13.04
2022-12-19T23:04:36.051Z,12.85
2022-12-19T23:07:06.186Z,13.00
2022-12-19T23:09:35.265Z,13.02
2022-12-19T23:12:03.709Z,12.97
2022-12-19T23:14:32.181Z,12.95
2022-12-19T23:17:00.903Z,13.10
2022-12-19T23:19:30.042Z,12.82
2022-12-19T23:21:59.457Z,12.69
2022-12-19T23:24:30.534Z,12.49
2022-12-19T23:27:00.479Z,12.89
2022-12-19T23:29:29.158Z,12.70
2022-12-19T23:31:58.187Z,12.88
2022-12-19T23:34:27.016Z,13.06
2022-12-19T23:37:12.296Z,13.08
2022-12-19T23:39:42.627Z,12.52
2022-12-19T23:42:12.566Z,12.69
2022-12-19T23:44:43.813Z,12.58
2022-12-19T23:47:15.211Z,13.05
2022-12-19T23:49:44.385Z,13.03
2022-12-19T23:52:13.685Z,12.95
2022-12-19T23:54:45.315Z,12.82
2022-12-19T23:57:17.186Z,12.75
2022-12-19T23:59:46.358Z,12.74
